createdAt,value
2019-02-20T00:02:05.740Z,8.80
2019-02-20T00:04:34.145Z,8.30
2019-02-20T00:07:02.574Z,9.03
2019-02-20T00:09:31.022Z,9.63
2019-02-20T00:11:59.460Z,8.80
2019-02-20T00:14:27.888Z,9.47
2019-02-20T00:16:56.482Z,8.50
2019-02-20T00:19:24.930Z,9.47
2019-02-20T00:21:53.349Z,8.70
2019-02-20T00:24:21.802Z,9.30
2019-02-20T00:26:50.233Z,8.77
2019-02-20T00:29:18.685Z,8.93
2019-02-20T00:31:47.124Z,9.70
2019-02-20T00:34:15.547Z,9.40
2019-02-20T00:36:43.967Z,9.57
2019-02-20T00:39:12.486Z,8.47
2019-02-20T00:41:40.975Z,8.30
2019-02-20T00:44:11.132Z,7.97
2019-02-20T00:46:41.196Z,7.73
2019-02-20T00:49:13.939Z,9.57
2019-02-20T00:51:43.999Z,9.10
2019-02-20T00:54:12.446Z,8.23
2019-02-20T00:56:40.874Z,8.60
2019-02-20T00:59:09.324Z,7.90
2019-02-20T01:01:37.747Z,8.50
2019-02-20T01:04:06.365Z,8.57
2019-02-20T01:06:34.783Z,7.93
2019-02-20T01:09:03.233Z,7.47
2019-02-20T01:11:31.652Z,8.87
2019-02-20T01:14:00.110Z,7.20
2019-02-20T01:16:28.531Z,7.00
2019-02-20T01:18:56.975Z,7.80
2019-02-20T01:21:25.396Z,8.03
2019-02-20T01:23:53.822Z,7.97
2019-02-20T01:26:22.329Z,7.80
2019-02-20T01:28:50.748Z,8.10
2019-02-20T01:31:19.189Z,8.70
2019-02-20T01:33:47.622Z,8.27
2019-02-20T01:36:16.070Z,8.37
2019-02-20T01:38:44.493Z,9.87
2019-02-20T01:41:12.943Z,8.57
2019-02-20T01:43:41.361Z,7.73
2019-02-20T01:46:09.819Z,8.00
2019-02-20T01:48:38.239Z,8.40
2019-02-20T01:51:06.688Z,8.80
2019-02-20T01:53:35.106Z,8.40
2019-02-20T01:56:03.566Z,8.80
2019-02-20T01:58:31.982Z,8.60
2019-02-20T02:01:02.461Z,8.90
2019-02-20T02:03:30.882Z,8.53
2019-02-20T02:05:59.329Z,8.80
2019-02-20T02:08:27.752Z,9.10
2019-02-20T02:10:56.199Z,8.47
2019-02-20T02:13:24.624Z,8.00
2019-02-20T02:15:53.075Z,8.67
2019-02-20T02:18:21.502Z,9.03
2019-02-20T02:20:49.954Z,8.73
2019-02-20T02:23:20.080Z,8.50
2019-02-20T02:25:48.707Z,9.77
2019-02-20T02:28:17.131Z,9.40
2019-02-20T02:30:45.586Z,9.30
2019-02-20T02:33:14.014Z,9.10
2019-02-20T02:35:42.465Z,8.70
2019-02-20T02:38:10.897Z,11.30
2019-02-20T02:40:39.352Z,9.47
2019-02-20T02:43:07.751Z,9.13
2019-02-20T02:45:36.212Z,9.63
2019-02-20T02:48:04.638Z,10.07
2019-02-20T02:50:33.098Z,10.23
2019-02-20T02:53:01.521Z,10.00
2019-02-20T02:55:29.981Z,9.93
2019-02-20T02:57:58.400Z,9.60
2019-02-20T03:00:26.876Z,9.87
2019-02-20T03:02:55.354Z,10.50
2019-02-20T03:05:23.783Z,11.00
2019-02-20T03:07:52.237Z,11.30
2019-02-20T03:10:20.659Z,11.30
2019-02-20T03:12:49.115Z,12.10
2019-02-20T03:15:17.537Z,10.20
2019-02-20T03:17:45.984Z,10.37
2019-02-20T03:20:14.437Z,10.80
2019-02-20T03:22:42.877Z,10.00
2019-02-20T03:25:11.287Z,9.90
2019-02-20T03:27:39.728Z,9.50
2019-02-20T03:30:09.094Z,10.10
2019-02-20T03:32:37.544Z,11.00
2019-02-20T03:35:06.931Z,11.90
2019-02-20T03:37:35.389Z,10.60
2019-02-20T03:40:04.853Z,11.13
2019-02-20T03:42:33.317Z,11.13
2019-02-20T03:45:01.747Z,11.00
2019-02-20T03:47:30.196Z,10.40
2019-02-20T03:49:58.626Z,10.73
2019-02-20T03:52:27.083Z,10.93
2019-02-20T03:54:55.503Z,10.87
2019-02-20T03:57:23.953Z,11.67
2019-02-20T03:59:52.388Z,9.77
2019-02-20T04:02:20.842Z,11.30
2019-02-20T04:04:49.263Z,10.70
2019-02-20T04:07:17.715Z,10.90
2019-02-20T04:09:46.133Z,11.33
2019-02-20T04:12:14.663Z,11.20
2019-02-20T04:14:43.163Z,10.33
2019-02-20T04:17:11.599Z,11.73
2019-02-20T04:19:40.027Z,10.47
2019-02-20T04:22:08.481Z,11.17
2019-02-20T04:24:36.909Z,10.87
2019-02-20T04:27:05.357Z,10.90
2019-02-20T04:29:33.785Z,11.30
2019-02-20T04:32:02.239Z,10.70
2019-02-20T04:34:30.665Z,10.80
2019-02-20T04:36:59.115Z,11.47
2019-02-20T04:39:27.549Z,11.80
2019-02-20T04:41:55.984Z,11.50
2019-02-20T04:44:24.411Z,11.13
2019-02-20T04:46:52.834Z,10.50
2019-02-20T04:49:21.289Z,12.27
2019-02-20T04:51:49.712Z,10.87
2019-02-20T04:54:18.176Z,11.50
2019-02-20T04:56:46.608Z,10.40
2019-02-20T04:59:15.061Z,11.90
2019-02-20T05:01:43.485Z,11.20
2019-02-20T05:04:11.965Z,12.30
2019-02-20T05:06:40.391Z,11.23
2019-02-20T05:09:08.834Z,11.00
2019-02-20T05:11:37.255Z,11.97
2019-02-20T05:14:05.713Z,12.60
2019-02-20T05:16:34.138Z,12.13
2019-02-20T05:19:02.573Z,12.00
2019-02-20T05:21:31.004Z,11.27
2019-02-20T05:23:59.460Z,11.50
2019-02-20T05:26:27.900Z,10.93
2019-02-20T05:28:56.336Z,12.00
2019-02-20T05:31:24.773Z,11.07
2019-02-20T05:33:53.231Z,11.37
2019-02-20T05:36:21.739Z,11.97
2019-02-20T05:38:50.198Z,11.40
2019-02-20T05:41:18.641Z,11.50
2019-02-20T05:43:47.083Z,11.30
2019-02-20T05:46:15.505Z,11.70
2019-02-20T05:48:43.960Z,10.90
2019-02-20T05:51:12.372Z,11.53
2019-02-20T05:53:40.831Z,12.63
2019-02-20T05:56:09.254Z,11.53
2019-02-20T05:58:37.717Z,11.90
2019-02-20T06:01:06.136Z,12.23
2019-02-20T06:03:34.593Z,12.60
2019-02-20T06:06:03.052Z,11.90
2019-02-20T06:08:31.479Z,12.77
2019-02-20T06:10:59.910Z,11.67
2019-02-20T06:13:28.369Z,12.23
2019-02-20T06:15:56.799Z,11.60
2019-02-20T06:18:25.248Z,11.93
2019-02-20T06:20:53.685Z,12.40
2019-02-20T06:23:22.132Z,12.30
2019-02-20T06:25:50.567Z,12.27
2019-02-20T06:28:18.989Z,12.70
2019-02-20T06:30:47.445Z,11.80
2019-02-20T06:33:15.877Z,13.10
2019-02-20T06:35:44.326Z,12.77
2019-02-20T06:38:12.768Z,12.60
2019-02-20T06:40:41.218Z,12.80
2019-02-20T06:43:09.646Z,11.90
2019-02-20T06:45:38.103Z,12.33
2019-02-20T06:48:06.536Z,12.73
2019-02-20T06:50:34.982Z,12.80
2019-02-20T06:53:03.407Z,12.03
2019-02-20T06:55:31.941Z,11.90
2019-02-20T06:58:00.358Z,12.53
2019-02-20T07:00:28.814Z,11.60
2019-02-20T07:02:57.240Z,12.13
2019-02-20T07:05:36.343Z,12.23
2019-02-20T07:08:25.404Z,11.67
2019-02-20T07:11:13.643Z,10.80
2019-02-20T07:13:51.376Z,12.40
2019-02-20T07:16:41.950Z,12.03
2019-02-20T07:19:47.877Z,11.80
2019-02-20T07:22:22.333Z,12.70
2019-02-20T07:25:02.857Z,11.93
2019-02-20T07:27:35.520Z,10.90
2019-02-20T07:30:06.687Z,11.83
2019-02-20T07:32:35.109Z,13.27
2019-02-20T07:35:03.828Z,12.70
2019-02-20T07:37:32.261Z,12.37
2019-02-20T07:40:00.706Z,11.30
2019-02-20T07:42:29.125Z,13.30
2019-02-20T07:44:57.586Z,14.10
2019-02-20T07:47:26.014Z,13.40
2019-02-20T07:49:54.477Z,12.70
2019-02-20T07:52:22.900Z,13.30
2019-02-20T07:54:51.333Z,13.90
2019-02-20T07:57:19.790Z,14.40
2019-02-20T07:59:48.209Z,13.20
2019-02-20T08:02:16.661Z,13.17
2019-02-20T08:04:45.089Z,14.60
2019-02-20T08:07:13.550Z,15.13
2019-02-20T08:09:41.968Z,15.00
2019-02-20T08:12:10.485Z,14.30
2019-02-20T08:14:38.914Z,15.80
2019-02-20T08:17:07.524Z,15.40
2019-02-20T08:19:35.942Z,16.40
2019-02-20T08:22:04.469Z,16.23
2019-02-20T08:24:32.909Z,17.43
2019-02-20T08:27:01.341Z,18.57
2019-02-20T08:29:29.803Z,17.80
2019-02-20T08:31:58.303Z,16.47
2019-02-20T08:34:26.742Z,17.30
2019-02-20T08:36:55.267Z,17.43
2019-02-20T08:39:23.691Z,18.10
2019-02-20T08:41:52.141Z,17.10
2019-02-20T08:44:20.571Z,18.03
2019-02-20T08:46:49.025Z,18.03
2019-02-20T08:49:17.444Z,19.20
2019-02-20T08:51:45.898Z,18.03
2019-02-20T08:54:14.320Z,18.07
2019-02-20T08:56:42.784Z,19.13
2019-02-20T08:59:11.213Z,19.03
2019-02-20T09:01:39.674Z,18.33
2019-02-20T09:04:08.101Z,19.70
2019-02-20T09:06:36.554Z,19.47
2019-02-20T09:09:05.855Z,19.90
2019-02-20T09:11:34.275Z,19.43
2019-02-20T09:14:02.731Z,20.30
2019-02-20T09:16:31.161Z,21.03
2019-02-20T09:18:59.621Z,18.30
2019-02-20T09:21:28.056Z,20.80
2019-02-20T09:23:56.520Z,21.60
2019-02-20T09:26:24.938Z,21.30
2019-02-20T09:28:53.395Z,16.97
2019-02-20T09:31:21.823Z,18.97
2019-02-20T09:33:50.274Z,19.17
2019-02-20T09:36:18.693Z,19.27
2019-02-20T09:38:47.149Z,20.50
2019-02-20T09:41:15.563Z,19.80
2019-02-20T09:43:44.959Z,19.60
2019-02-20T09:46:13.385Z,22.93
2019-02-20T09:48:41.833Z,21.53
2019-02-20T09:51:10.251Z,21.97
2019-02-20T09:53:38.709Z,23.17
2019-02-20T09:56:07.136Z,23.27
2019-02-20T09:58:35.585Z,22.33
2019-02-20T10:01:04.004Z,21.33
2019-02-20T10:03:32.466Z,22.10
2019-02-20T10:06:00.886Z,22.03
2019-02-20T10:08:29.336Z,19.87
2019-02-20T10:10:57.777Z,20.50
2019-02-20T10:13:26.196Z,20.50
2019-02-20T10:15:54.644Z,17.40
2019-02-20T10:18:23.079Z,18.37
2019-02-20T10:20:51.529Z,17.27
2019-02-20T10:23:19.963Z,19.00
2019-02-20T10:25:48.407Z,18.87
2019-02-20T10:28:16.836Z,19.17
2019-02-20T10:30:45.298Z,18.27
2019-02-20T10:33:13.729Z,19.53
2019-02-20T10:35:42.187Z,16.97
2019-02-20T10:38:10.620Z,17.43
2019-02-20T10:40:39.077Z,18.57
2019-02-20T10:43:07.577Z,18.07
2019-02-20T10:45:36.033Z,17.33
2019-02-20T10:48:04.455Z,16.50
2019-02-20T10:50:32.911Z,17.77
2019-02-20T10:53:01.346Z,18.10
2019-02-20T10:55:29.795Z,17.33
2019-02-20T10:57:58.216Z,17.70
2019-02-20T11:00:28.384Z,17.63
2019-02-20T11:02:56.804Z,16.83
2019-02-20T11:05:25.329Z,17.70
2019-02-20T11:07:53.744Z,16.00
2019-02-20T11:10:24.034Z,17.43
2019-02-20T11:12:52.723Z,17.27
2019-02-20T11:15:21.185Z,16.50
2019-02-20T11:17:49.609Z,17.30
2019-02-20T11:20:18.078Z,18.07
2019-02-20T11:22:46.561Z,16.73
2019-02-20T11:25:15.007Z,16.50
2019-02-20T11:27:43.507Z,16.83
2019-02-20T11:30:17.862Z,15.90
2019-02-20T11:32:46.282Z,15.23
2019-02-20T11:35:14.732Z,15.80
2019-02-20T11:37:43.147Z,15.93
2019-02-20T11:40:11.673Z,15.20
2019-02-20T11:42:40.097Z,16.93
2019-02-20T11:45:11.403Z,14.47
2019-02-20T11:47:39.824Z,16.80
2019-02-20T11:50:10.087Z,15.47
2019-02-20T11:52:38.788Z,15.17
2019-02-20T11:55:14.864Z,13.73
2019-02-20T11:57:43.462Z,15.07
2019-02-20T12:00:14.469Z,13.63
2019-02-20T12:02:42.991Z,14.60
2019-02-20T12:05:11.488Z,14.63
2019-02-20T12:07:40.008Z,15.97
2019-02-20T12:10:12.601Z,15.80
2019-02-20T12:12:40.922Z,15.00
2019-02-20T12:15:09.499Z,13.97
2019-02-20T12:17:38.015Z,13.57
2019-02-20T12:20:10.418Z,14.70
2019-02-20T12:22:38.896Z,13.87
2019-02-20T12:25:09.052Z,13.27
2019-02-20T12:27:37.580Z,12.77
2019-02-20T12:30:11.138Z,11.97
2019-02-20T12:32:39.672Z,14.40
2019-02-20T12:35:09.662Z,14.37
2019-02-20T12:37:38.170Z,14.30
2019-02-20T12:40:09.022Z,14.43
2019-02-20T12:42:37.479Z,15.23
2019-02-20T12:45:09.874Z,13.90
2019-02-20T12:47:38.331Z,13.43
2019-02-20T12:50:09.602Z,14.33
2019-02-20T12:52:38.086Z,14.50
2019-02-20T12:55:07.740Z,13.53
2019-02-20T12:57:36.269Z,12.70
2019-02-20T13:00:08.110Z,12.80
2019-02-20T13:02:36.573Z,12.67
2019-02-20T13:05:06.612Z,10.37
2019-02-20T13:07:35.083Z,13.03
2019-02-20T13:10:03.511Z,12.67
2019-02-20T13:12:32.035Z,12.27
2019-02-20T13:15:00.467Z,13.10
2019-02-20T13:17:28.924Z,12.50
2019-02-20T13:19:57.367Z,10.70
2019-02-20T13:22:25.824Z,11.10
2019-02-20T13:24:54.256Z,10.70
2019-02-20T13:27:23.215Z,10.80
2019-02-20T13:29:51.724Z,10.00
2019-02-20T13:32:20.183Z,11.77
2019-02-20T13:34:48.693Z,11.47
2019-02-20T13:37:17.158Z,9.80
2019-02-20T13:39:45.573Z,10.00
2019-02-20T13:42:14.102Z,11.33
2019-02-20T13:44:42.538Z,11.83
2019-02-20T13:47:10.990Z,9.80
2019-02-20T13:49:39.416Z,11.07
2019-02-20T13:52:07.940Z,9.37
2019-02-20T13:54:36.393Z,10.60
2019-02-20T13:57:05.851Z,11.33
2019-02-20T13:59:34.565Z,11.20
2019-02-20T14:02:03.000Z,10.40
2019-02-20T14:04:31.466Z,9.93
2019-02-20T14:06:59.930Z,10.37
2019-02-20T14:09:28.432Z,11.80
2019-02-20T14:11:56.925Z,11.37
2019-02-20T14:14:25.374Z,10.93
2019-02-20T14:16:54.078Z,11.30
2019-02-20T14:19:22.533Z,12.20
2019-02-20T14:21:50.967Z,11.07
2019-02-20T14:24:19.417Z,9.80
2019-02-20T14:26:47.846Z,10.43
2019-02-20T14:29:16.304Z,10.97
2019-02-20T14:31:44.736Z,10.80
2019-02-20T14:34:13.475Z,9.27
2019-02-20T14:36:41.968Z,9.90
2019-02-20T14:39:10.747Z,10.20
2019-02-20T14:41:39.167Z,11.00
2019-02-20T14:44:07.624Z,10.57
2019-02-20T14:46:36.367Z,9.73
2019-02-20T14:49:05.169Z,10.23
2019-02-20T14:51:33.632Z,9.27
2019-02-20T14:54:02.094Z,10.10
2019-02-20T14:56:30.597Z,10.87
2019-02-20T14:58:59.056Z,11.50
2019-02-20T15:01:27.483Z,10.80
2019-02-20T15:03:55.935Z,9.03
2019-02-20T15:06:24.748Z,10.23
2019-02-20T15:08:53.197Z,9.37
2019-02-20T15:11:21.616Z,9.13
2019-02-20T15:13:50.141Z,9.77
2019-02-20T15:16:18.565Z,10.43
2019-02-20T15:18:47.013Z,10.00
2019-02-20T15:21:15.442Z,10.40
2019-02-20T15:23:44.343Z,10.40
2019-02-20T15:26:12.843Z,10.93
2019-02-20T15:28:41.301Z,11.00
2019-02-20T15:31:09.727Z,10.80
2019-02-20T15:33:38.195Z,11.00
2019-02-20T15:36:06.681Z,11.60
2019-02-20T15:38:35.136Z,10.90
2019-02-20T15:41:03.846Z,10.60
2019-02-20T15:43:32.273Z,11.33
2019-02-20T15:46:00.723Z,11.47
2019-02-20T15:48:29.150Z,11.43
2019-02-20T15:50:57.644Z,10.50
2019-02-20T15:53:26.103Z,10.07
2019-02-20T15:55:54.558Z,11.27
2019-02-20T15:58:23.063Z,11.50
2019-02-20T16:00:51.516Z,11.00
2019-02-20T16:03:20.005Z,11.77
2019-02-20T16:05:48.502Z,11.20
2019-02-20T16:08:16.972Z,11.00
2019-02-20T16:10:45.423Z,10.27
2019-02-20T16:13:13.847Z,11.13
2019-02-20T16:15:42.303Z,11.40
2019-02-20T16:18:10.723Z,10.17
2019-02-20T16:20:39.180Z,11.63
2019-02-20T16:23:07.607Z,14.07
2019-02-20T16:25:36.063Z,45.70
2019-02-20T16:28:04.495Z,23.83
2019-02-20T16:30:33.388Z,25.23
2019-02-20T16:33:01.827Z,22.57
2019-02-20T16:35:30.347Z,20.13
2019-02-20T16:37:58.767Z,22.67
2019-02-20T16:40:27.222Z,20.90
2019-02-20T16:42:55.642Z,16.90
2019-02-20T16:45:25.134Z,13.20
2019-02-20T16:47:54.112Z,13.77
2019-02-20T16:50:22.623Z,14.70
2019-02-20T16:52:51.044Z,16.50
2019-02-20T16:55:19.864Z,13.97
2019-02-20T16:57:56.255Z,13.30
2019-02-20T17:00:20.658Z,13.90
2019-02-20T17:02:49.425Z,13.40
2019-02-20T17:05:17.874Z,14.40
2019-02-20T17:07:46.367Z,13.43
2019-02-20T17:10:16.624Z,13.13
2019-02-20T17:12:45.119Z,13.70
2019-02-20T17:15:17.818Z,12.70
2019-02-20T17:17:46.315Z,12.80
2019-02-20T17:20:17.866Z,12.90
2019-02-20T17:22:46.617Z,11.97
2019-02-20T17:25:15.377Z,12.13
2019-02-20T17:27:43.804Z,11.23
2019-02-20T17:30:14.611Z,12.47
2019-02-20T17:32:43.026Z,11.97
2019-02-20T17:35:11.717Z,12.80
2019-02-20T17:37:40.247Z,11.43
2019-02-20T17:40:10.314Z,12.70
2019-02-20T17:42:38.834Z,13.43
2019-02-20T17:45:10.662Z,12.87
2019-02-20T17:47:39.108Z,12.30
2019-02-20T17:50:12.928Z,13.83
2019-02-20T17:52:41.384Z,11.13
2019-02-20T17:55:10.641Z,13.20
2019-02-20T17:57:39.091Z,12.50
2019-02-20T18:00:13.000Z,11.63
2019-02-20T18:02:41.523Z,12.30
2019-02-20T18:05:10.005Z,12.10
2019-02-20T18:07:38.466Z,11.90
2019-02-20T18:10:08.726Z,10.80
2019-02-20T18:12:37.249Z,12.63
2019-02-20T18:15:08.777Z,12.10
2019-02-20T18:17:37.231Z,11.50
2019-02-20T18:20:10.458Z,10.60
2019-02-20T18:22:38.992Z,10.37
2019-02-20T18:25:11.660Z,10.70
2019-02-20T18:27:40.120Z,9.83
2019-02-20T18:30:15.946Z,10.40
2019-02-20T18:32:44.474Z,11.10
2019-02-20T18:35:15.594Z,10.00
2019-02-20T18:37:44.060Z,9.57
2019-02-20T18:40:15.388Z,9.30
2019-02-20T18:42:43.966Z,9.33
2019-02-20T18:45:14.145Z,8.50
2019-02-20T18:47:42.667Z,8.67
2019-02-20T18:50:13.389Z,7.77
2019-02-20T18:52:41.837Z,8.07
2019-02-20T18:55:13.987Z,8.37
2019-02-20T18:57:42.414Z,8.13
2019-02-20T19:00:16.555Z,8.00
2019-02-20T19:02:45.001Z,8.30
2019-02-20T19:05:13.675Z,7.50
2019-02-20T19:07:42.116Z,7.43
2019-02-20T19:10:13.936Z,7.83
2019-02-20T19:12:48.385Z,7.10
2019-02-20T19:15:22.678Z,6.83
2019-02-20T19:18:03.202Z,7.43
2019-02-20T19:20:37.628Z,7.60
2019-02-20T19:23:25.722Z,7.70
2019-02-20T19:26:19.365Z,7.17
2019-02-20T19:29:06.120Z,7.20
2019-02-20T19:31:43.322Z,6.23
2019-02-20T19:34:40.274Z,6.60
2019-02-20T19:37:23.180Z,6.70
2019-02-20T19:40:03.443Z,6.50
2019-02-20T19:43:10.013Z,6.23
2019-02-20T19:46:05.431Z,6.50
2019-02-20T19:48:42.713Z,6.30
2019-02-20T19:51:38.037Z,6.00
2019-02-20T19:54:41.913Z,7.80
2019-02-20T19:57:19.028Z,5.70
2019-02-20T19:59:55.987Z,6.27
2019-02-20T20:02:51.788Z,6.30
2019-02-20T20:05:39.675Z,6.47
2019-02-20T20:08:19.487Z,6.03
2019-02-20T20:11:20.132Z,6.57
2019-02-20T20:14:13.145Z,5.83
2019-02-20T20:17:04.261Z,6.10
2019-02-20T20:19:53.887Z,6.30
2019-02-20T20:22:28.329Z,5.87
2019-02-20T20:25:05.631Z,5.77
2019-02-20T20:27:42.928Z,6.67
2019-02-20T20:30:20.080Z,5.67
2019-02-20T20:33:00.502Z,5.57
2019-02-20T20:35:50.081Z,5.70
2019-02-20T20:38:39.508Z,5.53
2019-02-20T20:41:29.351Z,6.00
2019-02-20T20:44:03.539Z,6.27
2019-02-20T20:46:38.092Z,5.77
2019-02-20T20:49:09.822Z,6.00
2019-02-20T20:51:56.569Z,7.23
2019-02-20T20:54:28.196Z,5.67
2019-02-20T20:57:08.595Z,5.90
2019-02-20T20:59:49.030Z,5.90
2019-02-20T21:02:20.957Z,6.20
2019-02-20T21:05:09.134Z,5.30
2019-02-20T21:07:46.532Z,5.83
2019-02-20T21:10:26.955Z,6.10
2019-02-20T21:13:16.680Z,5.27
2019-02-20T21:16:06.022Z,5.70
2019-02-20T21:18:49.499Z,6.00
2019-02-20T21:21:27.124Z,5.80
2019-02-20T21:24:17.161Z,5.40
2019-02-20T21:27:06.856Z,6.00
2019-02-20T21:29:47.414Z,5.40
2019-02-20T21:32:41.872Z,6.23
2019-02-20T21:35:28.425Z,5.57
2019-02-20T21:38:18.122Z,5.40
2019-02-20T21:40:58.500Z,5.87
2019-02-20T21:43:35.685Z,5.60
2019-02-20T21:46:23.999Z,5.23
2019-02-20T21:49:04.371Z,5.80
2019-02-20T21:51:38.560Z,6.27
2019-02-20T21:54:30.734Z,6.03
2019-02-20T21:57:14.454Z,5.23
2019-02-20T21:59:48.719Z,6.83
2019-02-20T22:02:22.243Z,5.80
2019-02-20T22:04:59.845Z,6.03
2019-02-20T22:07:46.721Z,6.60
2019-02-20T22:10:34.858Z,6.50
2019-02-20T22:13:24.833Z,6.40
2019-02-20T22:16:11.292Z,7.07
2019-02-20T22:18:54.532Z,7.80
2019-02-20T22:21:42.734Z,7.27
2019-02-20T22:24:20.036Z,5.90
2019-02-20T22:27:12.562Z,7.63
2019-02-20T22:29:55.867Z,7.90
2019-02-20T22:32:27.495Z,7.73
2019-02-20T22:35:10.407Z,8.00
2019-02-20T22:37:54.276Z,8.40
2019-02-20T22:40:48.345Z,8.90
2019-02-20T22:43:41.034Z,8.27
2019-02-20T22:46:18.395Z,8.53
2019-02-20T22:49:09.767Z,8.93
2019-02-20T22:51:49.687Z,8.63
2019-02-20T22:54:42.803Z,8.83
2019-02-20T22:57:30.694Z,9.07
2019-02-20T23:00:37.457Z,9.90
2019-02-20T23:03:11.979Z,9.67
2019-02-20T23:05:43.582Z,10.10
2019-02-20T23:08:23.822Z,9.87
2019-02-20T23:11:18.349Z,9.70
2019-02-20T23:13:55.746Z,10.80
2019-02-20T23:16:24.165Z,11.10
2019-02-20T23:18:52.627Z,10.43
2019-02-20T23:21:21.048Z,11.83
2019-02-20T23:23:49.510Z,10.70
2019-02-20T23:26:17.939Z,11.50
2019-02-20T23:28:46.393Z,10.70
2019-02-20T23:31:14.821Z,10.90
2019-02-20T23:33:43.308Z,11.20
2019-02-20T23:36:11.704Z,11.30
2019-02-20T23:38:40.162Z,11.17
2019-02-20T23:41:08.587Z,11.20
2019-02-20T23:43:37.104Z,11.47
2019-02-20T23:46:05.600Z,10.90
2019-02-20T23:48:34.056Z,13.20
2019-02-20T23:51:02.475Z,12.30
2019-02-20T23:53:34.853Z,12.03
2019-02-20T23:56:06.808Z,12.60
2019-02-20T23:58:38.097Z,11.80
